Airfield :
LOGIN :

Register | Disclaimer

   EN    FR    IT 

 










Legend :    VFR   Marginal VFR   IFR   Intensive IFR   Very Intensive IFR
Visi :
Ceiling :
>= 8 km
>= 3000ft
5 to 8 km
1000 to 3000 ft
1500m to 5 km
500 to 1000 ft
800 to 1500m
200 to 500 ft
< 800m
< 200 ft
Symbols :   Thunderstorms  Fog  Heavy snow  Heavy precipitations  Wind > 20 kt
SIGMETs :     Misc.  Thunderstorms  Icing  Turbulence  Mountain Waves  Volcanic Ashes






- Airport Elevation : 2077 ft
- IATA code : FMM


EDJA - Memmingen

CURRENT METAR :
  • 061650Z AUTO 21007KT 9999 // BKN036/// OVC064/// 14/13 Q1006

EXPIRED METARs :
  • 061620Z AUTO 20008KT 9999 // SCT044/// SCT059/// OVC074/// 15/13 Q1006
  • 061550Z AUTO 18008KT 160V220 9999 // FEW029/// BKN080/// 15/13 Q1006
  • 061520Z AUTO 20006KT 9999 // BKN039/// OVC045/// 15/13 Q1006
  • 061450Z AUTO 27010KT 9999 // FEW026/// SCT030/// OVC037/// 15/13 Q1006
  • 061420Z 27008KT 240V300 9999 SCT035 OVC047 17/11 Q1006

TAF COR TAF EDJA
Valid from the 06 at 15:00 until the 07 at 00:00 UTC


061415Z 0615/0624 29010KT 9999 BKN035
PROB30
TEMPO 0615/0616 TSRA BKN020CB
TEMPO 0615/0618 4000 SHRA BKN020TCU
BECMG 0618/0620 23005KT



MET'MAP, your aeronautical weather chart ! - Copyright ORBIFLY December 2007 - Disclaimer

ORBIFLY MET'MAP TEAM :

Programming & Development : Alexandra Zaïnal
Concept & original design : Baudouin d'Aumeries
Assistance for programming : Marc-Olivier Méhu
Technical & hardware support : Manuel Goepfert

Contact : metmap@orbifly.com




SOURCES & CREDITS :

   NOAA